Currie, Australia
Current Conditions -  °F | °C
As of 1:00 PM on Tuesday 25 Nov 2014 (Local Time) from YMAV Reporting Station
Broken Clouds Broken Clouds  
Wind Chill: 70°   Ceiling: 6100
Heat Index: 70°   Visibility: 6mi
Dew Point: 41°   Wind: 22mph
Humidity: 35%   Direction: 280°W
Pressure: 30.06"   Gusts: NA
Location:  39.93°S, 143.85°E
Report Text: YMAV 250200Z AUTO 28019KT 9999 // BKN061 21/05 Q1018
Loading
Personal Weather Stations






























Interactive Weather Map New forecast layout! Learn more

10-Day Weather Forecast

Advertisements
Track Severe Weather on mobile